Notasulga, AL

5:07 PM CDT on August 04, 2015 (GMT -0500)
APRSWXNET | | Change Station
CLOSE
Current Station
Personal Weather Station
Location: Tallassee, AL
Elevation: 229 ft
Nearby Weather Stations

Elev 229 ft 32.50 °N, 85.89 °W | Updated 20 minutes ago

Clear
Clear
99 °F
Feels Like 101 °F
N
2
Wind Variable Wind from WNW
Gusts 5.0 mph

Today
High -- | Low -- °F
--% Chance of Precip.
Yesterday
High -- | Low -- °F
Precip. -- in
5:59 AM 7:38 PM
Waning Gibbous, 74% visible
Pressure 29.97 in
Visibility 10.0 miles
Clouds Scattered Clouds 8500 ft
Heat Index 101 °F
Dew Point 62 °F
Humidity 30%
Rainfall in
Snow Depth Not available.
UV 3 out of 12
Pollen 5.00 out of 12
Air Quality Not available.
Flu Activity Not available.
METAR KALX 042155Z AUTO 20005KT 10SM SCT085 36/12 A2997 RMK AO2 T03570115

More Conditions Fewer Conditions

Pressure 29.97 in
Visibility 10.0 miles
Clouds Scattered Clouds 8500 ft
Heat Index 101 °F
Dew Point 62 °F
Humidity 30%
Rainfall in
Snow Depth Not available.
UV 3 out of 12
Pollen 5.00 out of 12
Air Quality Not available.
Flu Activity Not available.
METAR KALX 042155Z AUTO 20005KT 10SM SCT085 36/12 A2997 RMK AO2 T03570115

More Conditions Fewer Conditions

10-Day Weather Forecast

×

Almanac

Astronomy

Aug. 04, 2015 Rise Set
Actual Time
Civil Twilight
Nautical Twilight
Astronomical Twilight
Moon
Length of Visible Light
Length of Day
Tomorrow will be .
, % of the Moon is Illuminated

Today's Extremes

State Highs State Lows

Community

WunderPhotos

Upload Photos

1,844,001 photos uploaded!

WunderBlogs® & News

Nearby

Air Quality

  Air Quality AQ Index Pollutant
Not available.

Snow Depth

Station Depth Elevation

Earthquake Activity

City Distance Mag. Time & Date
Minimum magnitude displayed is 2.5.

Coastal Water Temperatures

Place Temperature

Stations

Nearby Weather Stations

Station Location Temp. Windchill Dew Point Humidity Wind Precip. Elev Updated Type